sensor_id;sensor_type;location;lat;lon;timestamp;P1;durP1;ratioP1;P2;durP2;ratioP2
11984;SDS011;6052;53.246;10.368;2022-09-09T00:00:43;1.50;;;1.00;;
11984;SDS011;6052;53.246;10.368;2022-09-09T00:03:17;1.40;;;1.05;;
11984;SDS011;6052;53.246;10.368;2022-09-09T00:05:52;1.10;;;0.85;;
11984;SDS011;6052;53.246;10.368;2022-09-09T00:08:24;1.88;;;1.08;;
11984;SDS011;6052;53.246;10.368;2022-09-09T00:11:02;1.20;;;0.85;;
11984;SDS011;6052;53.246;10.368;2022-09-09T00:13:33;1.90;;;1.23;;
11984;SDS011;6052;53.246;10.368;2022-09-09T00:16:03;1.92;;;1.15;;
11984;SDS011;6052;53.246;10.368;2022-09-09T00:18:36;1.95;;;1.25;;
11984;SDS011;6052;53.246;10.368;2022-09-09T00:21:13;1.20;;;0.93;;
11984;SDS011;6052;53.246;10.368;2022-09-09T00:23:43;2.13;;;1.42;;
11984;SDS011;6052;53.246;10.368;2022-09-09T00:26:14;1.20;;;0.88;;
11984;SDS011;6052;53.246;10.368;2022-09-09T00:28:47;1.95;;;1.05;;
11984;SDS011;6052;53.246;10.368;2022-09-09T00:31:18;1.40;;;1.23;;
11984;SDS011;6052;53.246;10.368;2022-09-09T00:33:49;0.75;;;0.60;;
11984;SDS011;6052;53.246;10.368;2022-09-09T00:36:18;1.38;;;0.85;;
11984;SDS011;6052;53.246;10.368;2022-09-09T00:38:49;1.25;;;1.10;;
11984;SDS011;6052;53.246;10.368;2022-09-09T00:41:21;1.10;;;0.90;;
11984;SDS011;6052;53.246;10.368;2022-09-09T00:43:54;1.50;;;1.00;;
11984;SDS011;6052;53.246;10.368;2022-09-09T00:46:27;1.02;;;0.80;;
11984;SDS011;6052;53.246;10.368;2022-09-09T00:49:08;1.42;;;1.10;;
11984;SDS011;6052;53.246;10.368;2022-09-09T00:51:44;1.33;;;0.90;;
11984;SDS011;6052;53.246;10.368;2022-09-09T00:54:22;1.92;;;1.20;;
11984;SDS011;6052;53.246;10.368;2022-09-09T00:56:58;1.90;;;1.20;;
11984;SDS011;6052;53.246;10.368;2022-09-09T00:59:35;1.00;;;0.73;;
11984;SDS011;6052;53.246;10.368;2022-09-09T01:02:16;1.40;;;0.80;;
11984;SDS011;6052;53.246;10.368;2022-09-09T01:04:50;1.65;;;0.93;;
11984;SDS011;6052;53.246;10.368;2022-09-09T01:07:19;1.25;;;0.75;;
11984;SDS011;6052;53.246;10.368;2022-09-09T01:09:56;1.48;;;0.90;;
11984;SDS011;6052;53.246;10.368;2022-09-09T01:12:25;1.25;;;1.00;;
11984;SDS011;6052;53.246;10.368;2022-09-09T01:15:00;1.20;;;0.80;;
11984;SDS011;6052;53.246;10.368;2022-09-09T01:17:31;1.20;;;1.10;;
11984;SDS011;6052;53.246;10.368;2022-09-09T01:20:05;1.70;;;1.02;;
11984;SDS011;6052;53.246;10.368;2022-09-09T01:22:39;0.90;;;0.77;;
11984;SDS011;6052;53.246;10.368;2022-09-09T01:25:15;0.90;;;0.70;;
11984;SDS011;6052;53.246;10.368;2022-09-09T01:27:49;0.75;;;0.70;;
11984;SDS011;6052;53.246;10.368;2022-09-09T01:30:18;1.17;;;0.90;;
11984;SDS011;6052;53.246;10.368;2022-09-09T01:32:47;0.73;;;0.70;;
11984;SDS011;6052;53.246;10.368;2022-09-09T01:35:20;1.45;;;0.75;;
11984;SDS011;6052;53.246;10.368;2022-09-09T01:37:55;1.42;;;0.95;;
11984;SDS011;6052;53.246;10.368;2022-09-09T01:40:23;1.15;;;0.80;;
11984;SDS011;6052;53.246;10.368;2022-09-09T01:42:53;1.05;;;0.80;;
11984;SDS011;6052;53.246;10.368;2022-09-09T01:45:21;1.95;;;1.02;;
11984;SDS011;6052;53.246;10.368;2022-09-09T01:47:49;1.13;;;0.88;;
11984;SDS011;6052;53.246;10.368;2022-09-09T01:50:18;1.17;;;0.88;;
11984;SDS011;6052;53.246;10.368;2022-09-09T01:52:48;0.65;;;0.65;;
11984;SDS011;6052;53.246;10.368;2022-09-09T01:55:18;0.63;;;0.60;;
11984;SDS011;6052;53.246;10.368;2022-09-09T01:57:54;1.02;;;0.70;;
11984;SDS011;6052;53.246;10.368;2022-09-09T02:00:26;1.13;;;0.73;;
11984;SDS011;6052;53.246;10.368;2022-09-09T02:02:55;1.35;;;1.08;;
11984;SDS011;6052;53.246;10.368;2022-09-09T02:05:32;0.98;;;0.77;;
11984;SDS011;6052;53.246;10.368;2022-09-09T02:08:06;1.52;;;1.02;;
11984;SDS011;6052;53.246;10.368;2022-09-09T02:10:36;0.95;;;0.82;;
11984;SDS011;6052;53.246;10.368;2022-09-09T02:13:11;2.10;;;1.17;;
11984;SDS011;6052;53.246;10.368;2022-09-09T02:15:41;1.23;;;0.90;;
11984;SDS011;6052;53.246;10.368;2022-09-09T02:18:11;1.00;;;0.90;;
11984;SDS011;6052;53.246;10.368;2022-09-09T02:20:40;1.00;;;0.70;;
11984;SDS011;6052;53.246;10.368;2022-09-09T02:23:08;1.20;;;0.82;;
11984;SDS011;6052;53.246;10.368;2022-09-09T02:25:37;1.48;;;0.90;;
11984;SDS011;6052;53.246;10.368;2022-09-09T02:28:06;1.65;;;1.08;;
11984;SDS011;6052;53.246;10.368;2022-09-09T02:30:37;1.83;;;1.13;;
11984;SDS011;6052;53.246;10.368;2022-09-09T02:33:06;0.68;;;0.68;;
11984;SDS011;6052;53.246;10.368;2022-09-09T02:35:36;0.60;;;0.60;;
11984;SDS011;6052;53.246;10.368;2022-09-09T02:38:06;0.98;;;0.70;;
11984;SDS011;6052;53.246;10.368;2022-09-09T02:40:36;1.10;;;0.80;;
11984;SDS011;6052;53.246;10.368;2022-09-09T02:43:04;0.85;;;0.70;;
11984;SDS011;6052;53.246;10.368;2022-09-09T02:45:34;1.85;;;0.98;;
11984;SDS011;6052;53.246;10.368;2022-09-09T02:48:09;1.02;;;0.70;;
11984;SDS011;6052;53.246;10.368;2022-09-09T02:50:43;0.98;;;0.77;;
11984;SDS011;6052;53.246;10.368;2022-09-09T02:53:17;1.10;;;0.80;;
11984;SDS011;6052;53.246;10.368;2022-09-09T02:55:47;1.05;;;0.85;;
11984;SDS011;6052;53.246;10.368;2022-09-09T02:58:16;1.38;;;0.98;;
11984;SDS011;6052;53.246;10.368;2022-09-09T03:00:47;0.80;;;0.70;;
11984;SDS011;6052;53.246;10.368;2022-09-09T03:03:16;0.70;;;0.70;;
11984;SDS011;6052;53.246;10.368;2022-09-09T03:05:44;0.65;;;0.65;;
11984;SDS011;6052;53.246;10.368;2022-09-09T03:08:12;0.60;;;0.60;;
11984;SDS011;6052;53.246;10.368;2022-09-09T03:10:40;0.63;;;0.57;;
11984;SDS011;6052;53.246;10.368;2022-09-09T03:13:08;1.20;;;1.00;;
11984;SDS011;6052;53.246;10.368;2022-09-09T03:15:38;1.20;;;0.90;;
11984;SDS011;6052;53.246;10.368;2022-09-09T03:18:07;1.17;;;0.93;;
11984;SDS011;6052;53.246;10.368;2022-09-09T03:20:35;1.33;;;0.95;;
11984;SDS011;6052;53.246;10.368;2022-09-09T03:23:02;1.05;;;0.80;;
11984;SDS011;6052;53.246;10.368;2022-09-09T03:25:30;0.75;;;0.60;;
11984;SDS011;6052;53.246;10.368;2022-09-09T03:27:58;0.73;;;0.50;;
11984;SDS011;6052;53.246;10.368;2022-09-09T03:30:28;1.17;;;0.77;;
11984;SDS011;6052;53.246;10.368;2022-09-09T03:32:56;1.17;;;1.00;;
11984;SDS011;6052;53.246;10.368;2022-09-09T03:35:25;1.20;;;0.77;;
11984;SDS011;6052;53.246;10.368;2022-09-09T03:37:53;1.00;;;0.63;;
11984;SDS011;6052;53.246;10.368;2022-09-09T03:40:21;1.10;;;0.82;;
11984;SDS011;6052;53.246;10.368;2022-09-09T03:42:48;1.13;;;0.70;;
11984;SDS011;6052;53.246;10.368;2022-09-09T03:45:16;0.65;;;0.65;;
11984;SDS011;6052;53.246;10.368;2022-09-09T03:47:44;0.73;;;0.63;;
11984;SDS011;6052;53.246;10.368;2022-09-09T03:50:12;0.65;;;0.63;;
11984;SDS011;6052;53.246;10.368;2022-09-09T03:52:41;1.00;;;0.68;;
11984;SDS011;6052;53.246;10.368;2022-09-09T03:55:10;1.05;;;0.60;;
11984;SDS011;6052;53.246;10.368;2022-09-09T03:57:37;0.90;;;0.57;;
11984;SDS011;6052;53.246;10.368;2022-09-09T04:00:06;1.30;;;0.88;;
11984;SDS011;6052;53.246;10.368;2022-09-09T04:02:35;0.77;;;0.77;;
11984;SDS011;6052;53.246;10.368;2022-09-09T04:05:03;1.00;;;0.70;;
11984;SDS011;6052;53.246;10.368;2022-09-09T04:07:33;1.30;;;0.80;;
11984;SDS011;6052;53.246;10.368;2022-09-09T04:10:02;0.68;;;0.68;;
11984;SDS011;6052;53.246;10.368;2022-09-09T04:12:30;1.08;;;0.70;;
11984;SDS011;6052;53.246;10.368;2022-09-09T04:14:58;0.73;;;0.70;;
11984;SDS011;6052;53.246;10.368;2022-09-09T04:17:27;0.63;;;0.63;;
11984;SDS011;6052;53.246;10.368;2022-09-09T04:19:54;0.75;;;0.65;;
11984;SDS011;6052;53.246;10.368;2022-09-09T04:22:23;0.90;;;0.70;;
11984;SDS011;6052;53.246;10.368;2022-09-09T04:24:50;0.73;;;0.63;;
11984;SDS011;6052;53.246;10.368;2022-09-09T04:27:19;0.50;;;0.50;;
11984;SDS011;6052;53.246;10.368;2022-09-09T04:29:47;1.48;;;0.70;;
11984;SDS011;6052;53.246;10.368;2022-09-09T04:32:15;0.70;;;0.57;;
11984;SDS011;6052;53.246;10.368;2022-09-09T04:34:42;0.47;;;0.47;;
11984;SDS011;6052;53.246;10.368;2022-09-09T04:37:11;0.52;;;0.47;;
11984;SDS011;6052;53.246;10.368;2022-09-09T04:39:38;0.77;;;0.70;;
11984;SDS011;6052;53.246;10.368;2022-09-09T04:42:06;0.40;;;0.40;;
11984;SDS011;6052;53.246;10.368;2022-09-09T04:44:35;0.75;;;0.70;;
11984;SDS011;6052;53.246;10.368;2022-09-09T04:47:03;0.63;;;0.63;;
11984;SDS011;6052;53.246;10.368;2022-09-09T04:49:31;0.47;;;0.40;;
11984;SDS011;6052;53.246;10.368;2022-09-09T04:51:58;0.70;;;0.63;;
11984;SDS011;6052;53.246;10.368;2022-09-09T04:54:27;0.52;;;0.52;;
11984;SDS011;6052;53.246;10.368;2022-09-09T04:56:55;0.65;;;0.60;;
11984;SDS011;6052;53.246;10.368;2022-09-09T04:59:22;0.60;;;0.60;;
11984;SDS011;6052;53.246;10.368;2022-09-09T05:01:51;0.68;;;0.63;;
11984;SDS011;6052;53.246;10.368;2022-09-09T05:04:21;0.57;;;0.50;;
11984;SDS011;6052;53.246;10.368;2022-09-09T05:06:49;0.50;;;0.50;;
11984;SDS011;6052;53.246;10.368;2022-09-09T05:09:16;0.45;;;0.45;;
11984;SDS011;6052;53.246;10.368;2022-09-09T05:11:44;0.60;;;0.57;;
11984;SDS011;6052;53.246;10.368;2022-09-09T05:14:12;0.75;;;0.70;;
11984;SDS011;6052;53.246;10.368;2022-09-09T05:16:41;0.63;;;0.57;;
11984;SDS011;6052;53.246;10.368;2022-09-09T05:19:11;0.32;;;0.32;;
11984;SDS011;6052;53.246;10.368;2022-09-09T05:21:39;0.98;;;0.70;;
11984;SDS011;6052;53.246;10.368;2022-09-09T05:24:07;0.40;;;0.40;;
11984;SDS011;6052;53.246;10.368;2022-09-09T05:26:35;1.00;;;0.70;;
11984;SDS011;6052;53.246;10.368;2022-09-09T05:31:55;0.38;;;0.38;;
11984;SDS011;6052;53.246;10.368;2022-09-09T05:34:24;0.32;;;0.32;;
11984;SDS011;6052;53.246;10.368;2022-09-09T05:36:52;0.43;;;0.43;;
11984;SDS011;6052;53.246;10.368;2022-09-09T05:39:19;0.50;;;0.50;;
11984;SDS011;6052;53.246;10.368;2022-09-09T05:41:47;0.57;;;0.50;;
11984;SDS011;6052;53.246;10.368;2022-09-09T05:44:15;0.60;;;0.57;;
11984;SDS011;6052;53.246;10.368;2022-09-09T05:46:43;0.60;;;0.50;;
11984;SDS011;6052;53.246;10.368;2022-09-09T05:49:11;0.40;;;0.40;;
11984;SDS011;6052;53.246;10.368;2022-09-09T05:51:40;0.35;;;0.35;;
11984;SDS011;6052;53.246;10.368;2022-09-09T05:54:09;0.60;;;0.60;;
11984;SDS011;6052;53.246;10.368;2022-09-09T05:56:36;0.30;;;0.30;;
11984;SDS011;6052;53.246;10.368;2022-09-09T05:59:05;0.50;;;0.50;;
11984;SDS011;6052;53.246;10.368;2022-09-09T06:01:34;0.25;;;0.25;;
11984;SDS011;6052;53.246;10.368;2022-09-09T06:04:04;0.25;;;0.25;;
11984;SDS011;6052;53.246;10.368;2022-09-09T06:06:33;0.22;;;0.22;;
11984;SDS011;6052;53.246;10.368;2022-09-09T06:09:04;0.45;;;0.35;;
11984;SDS011;6052;53.246;10.368;2022-09-09T06:11:36;0.40;;;0.40;;
11984;SDS011;6052;53.246;10.368;2022-09-09T06:14:04;0.47;;;0.47;;
11984;SDS011;6052;53.246;10.368;2022-09-09T06:16:32;0.20;;;0.20;;
11984;SDS011;6052;53.246;10.368;2022-09-09T06:19:03;0.45;;;0.32;;
11984;SDS011;6052;53.246;10.368;2022-09-09T06:21:31;0.32;;;0.32;;
11984;SDS011;6052;53.246;10.368;2022-09-09T06:24:02;0.50;;;0.40;;
11984;SDS011;6052;53.246;10.368;2022-09-09T06:26:31;0.70;;;0.50;;
11984;SDS011;6052;53.246;10.368;2022-09-09T06:29:00;0.30;;;0.30;;
11984;SDS011;6052;53.246;10.368;2022-09-09T06:31:30;0.40;;;0.40;;
11984;SDS011;6052;53.246;10.368;2022-09-09T06:34:04;0.28;;;0.20;;
11984;SDS011;6052;53.246;10.368;2022-09-09T06:36:34;0.30;;;0.30;;
11984;SDS011;6052;53.246;10.368;2022-09-09T06:39:04;0.32;;;0.32;;
11984;SDS011;6052;53.246;10.368;2022-09-09T06:41:39;0.55;;;0.55;;
11984;SDS011;6052;53.246;10.368;2022-09-09T06:44:07;0.20;;;0.20;;
11984;SDS011;6052;53.246;10.368;2022-09-09T06:46:35;0.40;;;0.40;;
11984;SDS011;6052;53.246;10.368;2022-09-09T06:49:03;0.20;;;0.20;;
11984;SDS011;6052;53.246;10.368;2022-09-09T06:51:31;0.35;;;0.35;;
11984;SDS011;6052;53.246;10.368;2022-09-09T06:54:03;0.65;;;0.40;;
11984;SDS011;6052;53.246;10.368;2022-09-09T06:56:33;0.30;;;0.30;;
11984;SDS011;6052;53.246;10.368;2022-09-09T06:59:02;0.35;;;0.35;;
11984;SDS011;6052;53.246;10.368;2022-09-09T07:01:32;0.30;;;0.30;;
11984;SDS011;6052;53.246;10.368;2022-09-09T07:04:00;0.28;;;0.28;;
11984;SDS011;6052;53.246;10.368;2022-09-09T07:06:31;0.35;;;0.35;;
11984;SDS011;6052;53.246;10.368;2022-09-09T07:09:01;0.28;;;0.28;;
11984;SDS011;6052;53.246;10.368;2022-09-09T07:11:32;0.13;;;0.13;;
11984;SDS011;6052;53.246;10.368;2022-09-09T07:14:05;0.20;;;0.20;;
11984;SDS011;6052;53.246;10.368;2022-09-09T07:16:33;0.40;;;0.38;;
11984;SDS011;6052;53.246;10.368;2022-09-09T07:19:03;0.20;;;0.20;;
11984;SDS011;6052;53.246;10.368;2022-09-09T07:21:31;1.17;;;0.38;;
11984;SDS011;6052;53.246;10.368;2022-09-09T07:24:00;0.32;;;0.32;;
11984;SDS011;6052;53.246;10.368;2022-09-09T07:26:29;0.10;;;0.10;;
11984;SDS011;6052;53.246;10.368;2022-09-09T07:28:58;0.38;;;0.38;;
11984;SDS011;6052;53.246;10.368;2022-09-09T07:31:29;0.28;;;0.28;;
11984;SDS011;6052;53.246;10.368;2022-09-09T07:33:57;0.57;;;0.20;;
11984;SDS011;6052;53.246;10.368;2022-09-09T07:36:29;0.20;;;0.20;;
11984;SDS011;6052;53.246;10.368;2022-09-09T07:39:00;0.30;;;0.20;;
11984;SDS011;6052;53.246;10.368;2022-09-09T07:41:32;0.25;;;0.25;;
11984;SDS011;6052;53.246;10.368;2022-09-09T07:44:07;0.40;;;0.40;;
11984;SDS011;6052;53.246;10.368;2022-09-09T07:46:36;0.40;;;0.30;;
11984;SDS011;6052;53.246;10.368;2022-09-09T07:49:06;0.20;;;0.20;;
11984;SDS011;6052;53.246;10.368;2022-09-09T07:51:35;0.20;;;0.20;;
11984;SDS011;6052;53.246;10.368;2022-09-09T07:54:06;0.22;;;0.13;;
11984;SDS011;6052;53.246;10.368;2022-09-09T07:56:35;0.10;;;0.10;;
11984;SDS011;6052;53.246;10.368;2022-09-09T07:59:07;0.22;;;0.22;;
11984;SDS011;6052;53.246;10.368;2022-09-09T08:01:37;0.22;;;0.22;;
11984;SDS011;6052;53.246;10.368;2022-09-09T08:04:07;0.30;;;0.30;;
11984;SDS011;6052;53.246;10.368;2022-09-09T08:06:37;0.17;;;0.17;;
11984;SDS011;6052;53.246;10.368;2022-09-09T08:09:06;0.60;;;0.60;;
11984;SDS011;6052;53.246;10.368;2022-09-09T08:11:35;0.28;;;0.28;;
11984;SDS011;6052;53.246;10.368;2022-09-09T08:14:04;0.30;;;0.30;;
11984;SDS011;6052;53.246;10.368;2022-09-09T08:16:35;0.40;;;0.40;;
11984;SDS011;6052;53.246;10.368;2022-09-09T08:19:04;0.50;;;0.50;;
11984;SDS011;6052;53.246;10.368;2022-09-09T08:21:34;0.30;;;0.30;;
11984;SDS011;6052;53.246;10.368;2022-09-09T08:24:03;0.35;;;0.35;;
11984;SDS011;6052;53.246;10.368;2022-09-09T08:26:33;0.52;;;0.50;;
11984;SDS011;6052;53.246;10.368;2022-09-09T08:29:03;0.55;;;0.43;;
11984;SDS011;6052;53.246;10.368;2022-09-09T08:31:32;0.30;;;0.30;;
11984;SDS011;6052;53.246;10.368;2022-09-09T08:34:03;0.32;;;0.32;;
11984;SDS011;6052;53.246;10.368;2022-09-09T08:36:32;0.30;;;0.30;;
11984;SDS011;6052;53.246;10.368;2022-09-09T08:39:01;0.20;;;0.20;;
11984;SDS011;6052;53.246;10.368;2022-09-09T08:41:39;0.40;;;0.40;;
11984;SDS011;6052;53.246;10.368;2022-09-09T08:44:13;0.47;;;0.47;;
11984;SDS011;6052;53.246;10.368;2022-09-09T08:46:47;0.40;;;0.40;;
11984;SDS011;6052;53.246;10.368;2022-09-09T08:49:36;0.63;;;0.60;;
11984;SDS011;6052;53.246;10.368;2022-09-09T08:52:11;0.30;;;0.30;;
11984;SDS011;6052;53.246;10.368;2022-09-09T08:54:42;0.30;;;0.30;;
11984;SDS011;6052;53.246;10.368;2022-09-09T08:57:18;0.30;;;0.30;;
11984;SDS011;6052;53.246;10.368;2022-09-09T08:59:48;0.40;;;0.40;;
11984;SDS011;6052;53.246;10.368;2022-09-09T09:02:19;0.17;;;0.17;;
11984;SDS011;6052;53.246;10.368;2022-09-09T09:04:52;0.57;;;0.57;;
11984;SDS011;6052;53.246;10.368;2022-09-09T09:07:31;0.30;;;0.30;;
11984;SDS011;6052;53.246;10.368;2022-09-09T09:10:04;0.40;;;0.40;;
11984;SDS011;6052;53.246;10.368;2022-09-09T09:12:57;0.40;;;0.40;;
11984;SDS011;6052;53.246;10.368;2022-09-09T09:15:30;0.30;;;0.30;;
11984;SDS011;6052;53.246;10.368;2022-09-09T09:18:00;0.35;;;0.35;;
11984;SDS011;6052;53.246;10.368;2022-09-09T09:20:29;0.50;;;0.50;;
11984;SDS011;6052;53.246;10.368;2022-09-09T09:23:04;0.38;;;0.38;;
11984;SDS011;6052;53.246;10.368;2022-09-09T09:25:34;0.40;;;0.40;;
11984;SDS011;6052;53.246;10.368;2022-09-09T09:28:03;0.60;;;0.50;;
11984;SDS011;6052;53.246;10.368;2022-09-09T09:30:44;0.50;;;0.50;;
11984;SDS011;6052;53.246;10.368;2022-09-09T09:33:20;0.40;;;0.40;;
11984;SDS011;6052;53.246;10.368;2022-09-09T09:35:51;0.50;;;0.47;;
11984;SDS011;6052;53.246;10.368;2022-09-09T09:38:20;0.50;;;0.50;;
11984;SDS011;6052;53.246;10.368;2022-09-09T09:41:09;0.30;;;0.30;;
11984;SDS011;6052;53.246;10.368;2022-09-09T09:43:39;0.40;;;0.40;;
11984;SDS011;6052;53.246;10.368;2022-09-09T09:46:18;0.40;;;0.40;;
11984;SDS011;6052;53.246;10.368;2022-09-09T09:48:57;0.45;;;0.45;;
11984;SDS011;6052;53.246;10.368;2022-09-09T09:51:27;0.20;;;0.20;;
11984;SDS011;6052;53.246;10.368;2022-09-09T09:54:03;0.40;;;0.40;;
11984;SDS011;6052;53.246;10.368;2022-09-09T09:56:35;0.32;;;0.32;;
11984;SDS011;6052;53.246;10.368;2022-09-09T09:59:03;0.50;;;0.40;;
11984;SDS011;6052;53.246;10.368;2022-09-09T10:01:49;0.20;;;0.20;;
11984;SDS011;6052;53.246;10.368;2022-09-09T10:04:20;0.15;;;0.15;;
11984;SDS011;6052;53.246;10.368;2022-09-09T10:06:50;0.30;;;0.30;;
11984;SDS011;6052;53.246;10.368;2022-09-09T10:09:20;0.30;;;0.30;;
11984;SDS011;6052;53.246;10.368;2022-09-09T10:11:50;0.30;;;0.30;;
11984;SDS011;6052;53.246;10.368;2022-09-09T10:14:24;0.43;;;0.40;;
11984;SDS011;6052;53.246;10.368;2022-09-09T10:17:03;0.30;;;0.30;;
11984;SDS011;6052;53.246;10.368;2022-09-09T10:19:39;0.30;;;0.30;;
11984;SDS011;6052;53.246;10.368;2022-09-09T10:22:22;0.80;;;0.60;;
11984;SDS011;6052;53.246;10.368;2022-09-09T10:25:00;0.40;;;0.40;;
11984;SDS011;6052;53.246;10.368;2022-09-09T10:27:44;0.38;;;0.32;;
11984;SDS011;6052;53.246;10.368;2022-09-09T10:30:27;0.30;;;0.30;;
11984;SDS011;6052;53.246;10.368;2022-09-09T10:33:03;0.30;;;0.30;;
11984;SDS011;6052;53.246;10.368;2022-09-09T10:35:35;0.28;;;0.20;;
11984;SDS011;6052;53.246;10.368;2022-09-09T10:38:10;0.65;;;0.65;;
11984;SDS011;6052;53.246;10.368;2022-09-09T10:40:42;0.40;;;0.40;;
11984;SDS011;6052;53.246;10.368;2022-09-09T10:43:21;0.25;;;0.25;;
11984;SDS011;6052;53.246;10.368;2022-09-09T10:45:59;0.38;;;0.30;;
11984;SDS011;6052;53.246;10.368;2022-09-09T10:48:46;0.20;;;0.20;;
11984;SDS011;6052;53.246;10.368;2022-09-09T10:51:25;0.40;;;0.40;;
11984;SDS011;6052;53.246;10.368;2022-09-09T10:56:52;0.25;;;0.25;;
11984;SDS011;6052;53.246;10.368;2022-09-09T10:59:23;0.50;;;0.50;;
11984;SDS011;6052;53.246;10.368;2022-09-09T11:01:55;0.28;;;0.28;;
11984;SDS011;6052;53.246;10.368;2022-09-09T11:04:28;0.20;;;0.17;;
11984;SDS011;6052;53.246;10.368;2022-09-09T11:07:00;0.10;;;0.10;;
11984;SDS011;6052;53.246;10.368;2022-09-09T11:09:39;0.30;;;0.30;;
11984;SDS011;6052;53.246;10.368;2022-09-09T11:12:10;0.30;;;0.30;;
11984;SDS011;6052;53.246;10.368;2022-09-09T11:14:41;0.45;;;0.45;;
11984;SDS011;6052;53.246;10.368;2022-09-09T11:17:12;0.15;;;0.15;;
11984;SDS011;6052;53.246;10.368;2022-09-09T11:19:43;1.23;;;0.30;;
11984;SDS011;6052;53.246;10.368;2022-09-09T11:22:16;0.52;;;0.40;;
11984;SDS011;6052;53.246;10.368;2022-09-09T11:24:51;0.40;;;0.40;;
11984;SDS011;6052;53.246;10.368;2022-09-09T11:27:24;0.30;;;0.30;;
11984;SDS011;6052;53.246;10.368;2022-09-09T11:30:00;0.35;;;0.30;;
11984;SDS011;6052;53.246;10.368;2022-09-09T11:32:37;0.43;;;0.38;;
11984;SDS011;6052;53.246;10.368;2022-09-09T11:35:19;0.30;;;0.30;;
11984;SDS011;6052;53.246;10.368;2022-09-09T11:38:23;0.35;;;0.35;;
11984;SDS011;6052;53.246;10.368;2022-09-09T11:40:57;0.32;;;0.32;;
11984;SDS011;6052;53.246;10.368;2022-09-09T11:43:29;1.23;;;0.50;;
11984;SDS011;6052;53.246;10.368;2022-09-09T11:45:59;0.43;;;0.43;;
11984;SDS011;6052;53.246;10.368;2022-09-09T11:48:31;0.38;;;0.38;;
11984;SDS011;6052;53.246;10.368;2022-09-09T11:51:02;0.20;;;0.20;;
11984;SDS011;6052;53.246;10.368;2022-09-09T11:53:48;0.30;;;0.30;;
11984;SDS011;6052;53.246;10.368;2022-09-09T11:56:24;0.45;;;0.40;;
11984;SDS011;6052;53.246;10.368;2022-09-09T11:58:54;0.20;;;0.20;;
11984;SDS011;6052;53.246;10.368;2022-09-09T12:07:04;0.20;;;0.20;;
11984;SDS011;6052;53.246;10.368;2022-09-09T12:09:48;0.20;;;0.20;;
11984;SDS011;6052;53.246;10.368;2022-09-09T12:12:21;0.47;;;0.47;;
11984;SDS011;6052;53.246;10.368;2022-09-09T12:14:55;0.30;;;0.30;;
11984;SDS011;6052;53.246;10.368;2022-09-09T12:17:24;3.60;;;0.50;;
11984;SDS011;6052;53.246;10.368;2022-09-09T12:22:43;0.60;;;0.40;;
11984;SDS011;6052;53.246;10.368;2022-09-09T12:25:20;0.40;;;0.40;;
11984;SDS011;6052;53.246;10.368;2022-09-09T12:27:55;0.40;;;0.40;;
11984;SDS011;6052;53.246;10.368;2022-09-09T12:30:29;0.47;;;0.47;;
11984;SDS011;6052;53.246;10.368;2022-09-09T12:33:01;0.93;;;0.50;;
11984;SDS011;6052;53.246;10.368;2022-09-09T12:35:29;0.47;;;0.47;;
11984;SDS011;6052;53.246;10.368;2022-09-09T12:37:58;0.38;;;0.38;;
11984;SDS011;6052;53.246;10.368;2022-09-09T12:40:30;0.85;;;0.73;;
11984;SDS011;6052;53.246;10.368;2022-09-09T12:43:01;0.50;;;0.47;;
11984;SDS011;6052;53.246;10.368;2022-09-09T12:45:29;0.50;;;0.50;;
11984;SDS011;6052;53.246;10.368;2022-09-09T12:47:59;0.50;;;0.50;;
11984;SDS011;6052;53.246;10.368;2022-09-09T12:50:29;0.50;;;0.50;;
11984;SDS011;6052;53.246;10.368;2022-09-09T12:52:58;0.40;;;0.40;;
11984;SDS011;6052;53.246;10.368;2022-09-09T12:55:30;0.38;;;0.38;;
11984;SDS011;6052;53.246;10.368;2022-09-09T12:58:00;0.35;;;0.35;;
11984;SDS011;6052;53.246;10.368;2022-09-09T13:00:30;0.50;;;0.50;;
11984;SDS011;6052;53.246;10.368;2022-09-09T13:02:59;0.32;;;0.32;;
11984;SDS011;6052;53.246;10.368;2022-09-09T13:05:31;0.32;;;0.32;;
11984;SDS011;6052;53.246;10.368;2022-09-09T13:08:02;0.20;;;0.20;;
11984;SDS011;6052;53.246;10.368;2022-09-09T13:10:33;0.88;;;0.38;;
11984;SDS011;6052;53.246;10.368;2022-09-09T13:13:21;0.40;;;0.40;;
11984;SDS011;6052;53.246;10.368;2022-09-09T13:15:50;0.40;;;0.40;;
11984;SDS011;6052;53.246;10.368;2022-09-09T13:18:21;0.20;;;0.20;;
11984;SDS011;6052;53.246;10.368;2022-09-09T13:20:50;0.28;;;0.28;;
11984;SDS011;6052;53.246;10.368;2022-09-09T13:23:18;0.40;;;0.40;;
11984;SDS011;6052;53.246;10.368;2022-09-09T13:25:54;0.40;;;0.40;;
11984;SDS011;6052;53.246;10.368;2022-09-09T13:28:23;0.40;;;0.40;;
11984;SDS011;6052;53.246;10.368;2022-09-09T13:30:59;0.28;;;0.28;;
11984;SDS011;6052;53.246;10.368;2022-09-09T13:33:30;0.40;;;0.40;;
11984;SDS011;6052;53.246;10.368;2022-09-09T13:36:00;0.60;;;0.60;;
11984;SDS011;6052;53.246;10.368;2022-09-09T13:38:30;0.40;;;0.40;;
11984;SDS011;6052;53.246;10.368;2022-09-09T13:41:04;0.40;;;0.40;;
11984;SDS011;6052;53.246;10.368;2022-09-09T13:43:34;0.25;;;0.25;;
11984;SDS011;6052;53.246;10.368;2022-09-09T13:46:05;0.30;;;0.30;;
11984;SDS011;6052;53.246;10.368;2022-09-09T13:48:53;0.50;;;0.32;;
11984;SDS011;6052;53.246;10.368;2022-09-09T13:51:27;0.30;;;0.30;;
11984;SDS011;6052;53.246;10.368;2022-09-09T13:53:58;0.43;;;0.32;;
11984;SDS011;6052;53.246;10.368;2022-09-09T13:56:30;0.30;;;0.30;;
11984;SDS011;6052;53.246;10.368;2022-09-09T13:58:58;0.50;;;0.50;;
11984;SDS011;6052;53.246;10.368;2022-09-09T14:01:27;0.20;;;0.20;;
11984;SDS011;6052;53.246;10.368;2022-09-09T14:03:55;0.22;;;0.22;;
11984;SDS011;6052;53.246;10.368;2022-09-09T14:06:23;0.20;;;0.20;;
11984;SDS011;6052;53.246;10.368;2022-09-09T14:08:51;0.25;;;0.25;;
11984;SDS011;6052;53.246;10.368;2022-09-09T14:11:20;0.30;;;0.30;;
11984;SDS011;6052;53.246;10.368;2022-09-09T14:13:50;0.20;;;0.20;;
11984;SDS011;6052;53.246;10.368;2022-09-09T14:16:17;0.05;;;0.05;;
11984;SDS011;6052;53.246;10.368;2022-09-09T14:18:46;0.20;;;0.20;;
11984;SDS011;6052;53.246;10.368;2022-09-09T14:21:14;0.03;;;0.03;;
11984;SDS011;6052;53.246;10.368;2022-09-09T14:23:42;0.10;;;0.10;;
11984;SDS011;6052;53.246;10.368;2022-09-09T14:26:10;0.10;;;0.10;;
11984;SDS011;6052;53.246;10.368;2022-09-09T14:28:37;0.10;;;0.10;;
11984;SDS011;6052;53.246;10.368;2022-09-09T14:31:23;0.25;;;0.20;;
11984;SDS011;6052;53.246;10.368;2022-09-09T14:33:52;0.20;;;0.20;;
11984;SDS011;6052;53.246;10.368;2022-09-09T14:36:19;0.00;;;0.00;;
11984;SDS011;6052;53.246;10.368;2022-09-09T14:38:47;0.10;;;0.10;;
11984;SDS011;6052;53.246;10.368;2022-09-09T14:41:15;0.00;;;0.00;;
11984;SDS011;6052;53.246;10.368;2022-09-09T14:43:46;0.00;;;0.00;;
11984;SDS011;6052;53.246;10.368;2022-09-09T14:46:14;0.00;;;0.00;;
11984;SDS011;6052;53.246;10.368;2022-09-09T14:48:45;0.13;;;0.13;;
11984;SDS011;6052;53.246;10.368;2022-09-09T14:51:15;0.20;;;0.20;;
11984;SDS011;6052;53.246;10.368;2022-09-09T14:53:45;0.22;;;0.20;;
11984;SDS011;6052;53.246;10.368;2022-09-09T14:56:14;0.30;;;0.20;;
11984;SDS011;6052;53.246;10.368;2022-09-09T14:58:44;0.20;;;0.20;;
11984;SDS011;6052;53.246;10.368;2022-09-09T15:01:13;0.22;;;0.20;;
11984;SDS011;6052;53.246;10.368;2022-09-09T15:03:43;0.28;;;0.28;;
11984;SDS011;6052;53.246;10.368;2022-09-09T15:06:17;0.08;;;0.08;;
11984;SDS011;6052;53.246;10.368;2022-09-09T15:08:45;0.10;;;0.10;;
11984;SDS011;6052;53.246;10.368;2022-09-09T15:11:14;0.10;;;0.10;;
11984;SDS011;6052;53.246;10.368;2022-09-09T15:13:42;0.77;;;0.30;;
11984;SDS011;6052;53.246;10.368;2022-09-09T15:16:11;0.10;;;0.10;;
11984;SDS011;6052;53.246;10.368;2022-09-09T15:18:41;0.22;;;0.17;;
11984;SDS011;6052;53.246;10.368;2022-09-09T15:21:10;0.40;;;0.20;;
11984;SDS011;6052;53.246;10.368;2022-09-09T15:23:39;0.13;;;0.13;;
11984;SDS011;6052;53.246;10.368;2022-09-09T15:26:07;0.10;;;0.10;;